createdAt,value
2018-03-11T00:02:02.069Z,86.50
2018-03-11T00:05:06.200Z,86.40
2018-03-11T00:08:09.527Z,86.30
2018-03-11T00:11:12.833Z,86.40
2018-03-11T00:14:16.290Z,86.50
2018-03-11T00:17:20.239Z,86.40
2018-03-11T00:20:23.610Z,86.60
2018-03-11T00:23:27.469Z,86.30
2018-03-11T00:26:31.063Z,86.70
2018-03-11T00:29:35.537Z,86.80
2018-03-11T00:32:38.901Z,86.50
2018-03-11T00:35:42.397Z,86.30
2018-03-11T00:38:46.056Z,86.50
2018-03-11T00:41:49.344Z,86.30
2018-03-11T00:44:52.803Z,86.20
2018-03-11T00:47:56.168Z,86.40
2018-03-11T00:50:59.566Z,86.50
2018-03-11T00:54:03.015Z,86.60
2018-03-11T00:57:06.384Z,86.90
2018-03-11T01:00:09.702Z,87.00
2018-03-11T01:03:13.586Z,87.00
2018-03-11T01:06:17.656Z,87.00
2018-03-11T01:09:21.057Z,86.90
2018-03-11T01:12:24.348Z,86.60
2018-03-11T01:15:27.688Z,87.30
2018-03-11T01:18:31.262Z,87.40
2018-03-11T01:21:34.801Z,87.80
2018-03-11T01:24:38.960Z,87.60
2018-03-11T01:27:42.410Z,87.50
2018-03-11T01:30:46.164Z,87.60
2018-03-11T01:33:49.455Z,87.60
2018-03-11T01:36:52.754Z,87.80
2018-03-11T01:39:56.804Z,87.90
2018-03-11T01:43:00.058Z,87.70
2018-03-11T01:46:03.393Z,87.70
2018-03-11T01:49:06.750Z,87.80
2018-03-11T01:52:10.116Z,87.60
2018-03-11T01:55:13.874Z,87.60
2018-03-11T01:58:17.924Z,87.90
2018-03-11T02:01:21.254Z,87.80
2018-03-11T02:04:24.552Z,87.70
2018-03-11T02:07:27.865Z,87.80
2018-03-11T02:10:31.168Z,87.80
2018-03-11T02:13:34.499Z,87.60
2018-03-11T02:16:37.905Z,88.00
2018-03-11T02:19:41.237Z,88.00
2018-03-11T02:22:44.696Z,88.10
2018-03-11T02:25:48.022Z,88.20
2018-03-11T02:28:51.383Z,88.20
2018-03-11T02:31:54.762Z,88.10
2018-03-11T02:34:58.040Z,88.40
2018-03-11T02:38:02.119Z,90.00
2018-03-11T02:41:05.386Z,90.00
2018-03-11T02:44:09.545Z,90.00
2018-03-11T02:47:13.624Z,90.00
2018-03-11T02:50:16.961Z,89.80
2018-03-11T02:53:20.278Z,90.00
2018-03-11T02:56:24.360Z,90.10
2018-03-11T02:59:27.632Z,90.00
2018-03-11T03:02:31.044Z,90.00
2018-03-11T03:05:34.359Z,90.10
2018-03-11T03:08:37.781Z,90.10
2018-03-11T03:11:41.490Z,90.10
2018-03-11T03:14:45.645Z,90.00
2018-03-11T03:17:49.012Z,90.00
2018-03-11T03:20:53.149Z,90.00
2018-03-11T03:23:56.482Z,89.70
2018-03-11T03:27:00.163Z,89.70
2018-03-11T03:30:03.746Z,90.00
2018-03-11T03:33:07.783Z,90.00
2018-03-11T03:36:11.210Z,90.00
2018-03-11T03:39:15.124Z,90.00
2018-03-11T03:42:19.255Z,90.10
2018-03-11T03:45:22.849Z,90.00
2018-03-11T03:48:26.931Z,90.00
2018-03-11T03:51:30.306Z,90.00
2018-03-11T03:54:34.390Z,90.00
2018-03-11T03:57:37.717Z,90.00
2018-03-11T04:00:41.843Z,90.00
2018-03-11T04:03:45.207Z,90.00
2018-03-11T04:06:48.662Z,90.10
2018-03-11T04:09:52.126Z,90.20
2018-03-11T04:12:55.440Z,90.30
2018-03-11T04:15:58.799Z,90.30
2018-03-11T04:19:07.662Z,90.30
2018-03-11T04:22:11.097Z,90.30
2018-03-11T04:25:14.389Z,90.30
2018-03-11T04:28:17.746Z,90.30
2018-03-11T04:31:21.098Z,90.30
2018-03-11T04:34:24.407Z,90.40
2018-03-11T04:37:27.707Z,90.30
2018-03-11T04:40:31.139Z,90.50
2018-03-11T04:43:35.352Z,90.60
2018-03-11T04:46:39.470Z,90.70
2018-03-11T04:49:42.876Z,90.60
2018-03-11T04:52:46.220Z,90.70
2018-03-11T04:55:49.521Z,90.70
2018-03-11T04:58:53.191Z,90.90
2018-03-11T05:01:56.670Z,91.00
2018-03-11T05:05:00.871Z,91.10
2018-03-11T05:08:04.169Z,91.00
2018-03-11T05:11:08.386Z,91.70
2018-03-11T05:14:11.790Z,91.40
2018-03-11T05:17:15.169Z,91.50
2018-03-11T05:20:18.501Z,91.40
2018-03-11T05:23:21.852Z,91.50
2018-03-11T05:26:25.186Z,91.70
2018-03-11T05:29:29.517Z,91.80
2018-03-11T05:32:33.673Z,91.90
2018-03-11T05:35:37.057Z,91.80
2018-03-11T05:38:40.446Z,91.90
2018-03-11T05:41:44.001Z,91.90
2018-03-11T05:44:47.489Z,91.80
2018-03-11T05:47:50.982Z,91.70
2018-03-11T05:50:54.359Z,91.70
2018-03-11T05:53:58.560Z,91.60
2018-03-11T05:57:02.001Z,91.60
2018-03-11T06:00:06.101Z,91.40
2018-03-11T06:03:09.526Z,91.30
2018-03-11T06:06:13.127Z,91.30
2018-03-11T06:09:16.575Z,91.20
2018-03-11T06:12:19.988Z,91.10
2018-03-11T06:15:23.404Z,91.00
2018-03-11T06:18:26.847Z,91.10
2018-03-11T06:21:30.958Z,90.80
2018-03-11T06:24:35.225Z,90.80
2018-03-11T06:27:38.592Z,90.80
2018-03-11T06:30:42.798Z,89.90
2018-03-11T06:33:46.173Z,89.70
2018-03-11T06:36:49.580Z,90.30
2018-03-11T06:39:53.005Z,90.40
2018-03-11T06:42:57.121Z,89.20
2018-03-11T06:46:01.210Z,85.90
2018-03-11T06:49:04.624Z,86.40
2018-03-11T06:52:08.809Z,71.30
2018-03-11T06:55:12.158Z,71.60
2018-03-11T06:58:15.693Z,63.60
2018-03-11T07:01:19.097Z,59.00
2018-03-11T07:04:22.466Z,58.40
2018-03-11T07:07:25.868Z,58.30
2018-03-11T07:10:29.244Z,59.70
2018-03-11T07:13:33.544Z,66.80
2018-03-11T07:16:37.054Z,66.60
2018-03-11T07:19:40.451Z,63.90
2018-03-11T07:22:43.838Z,61.00
2018-03-11T07:25:47.310Z,59.60
2018-03-11T07:28:50.847Z,55.60
2018-03-11T07:31:54.269Z,52.50
2018-03-11T07:34:57.740Z,54.20
2018-03-11T07:38:01.353Z,58.80
2018-03-11T07:41:04.780Z,62.60
2018-03-11T07:44:08.236Z,66.20
2018-03-11T07:47:11.653Z,68.40
2018-03-11T07:50:15.054Z,70.30
2018-03-11T07:53:19.186Z,72.60
2018-03-11T07:56:22.644Z,72.40
2018-03-11T07:59:27.351Z,72.70
2018-03-11T08:02:30.858Z,72.60
2018-03-11T08:05:34.251Z,72.10
2018-03-11T08:08:37.603Z,68.50
2018-03-11T08:11:42.131Z,66.50
2018-03-11T08:14:45.825Z,62.80
2018-03-11T08:17:49.290Z,60.40
2018-03-11T08:20:53.185Z,59.00
2018-03-11T08:23:56.656Z,62.90
2018-03-11T08:27:00.179Z,58.90
2018-03-11T08:30:03.659Z,58.50
2018-03-11T08:33:07.004Z,58.00
2018-03-11T08:36:10.416Z,57.10
2018-03-11T08:39:13.890Z,56.80
2018-03-11T08:42:17.385Z,56.00
2018-03-11T08:45:20.868Z,56.00
2018-03-11T08:48:24.388Z,55.60
2018-03-11T08:51:28.186Z,56.90
2018-03-11T08:54:31.636Z,57.30
2018-03-11T08:57:34.992Z,57.60
2018-03-11T09:00:38.370Z,60.40
2018-03-11T09:03:42.350Z,59.60
2018-03-11T09:06:45.730Z,61.40
2018-03-11T09:09:49.181Z,63.80
2018-03-11T09:12:53.395Z,65.10
2018-03-11T09:15:56.764Z,65.00
2018-03-11T09:19:00.078Z,66.70
2018-03-11T09:22:03.437Z,66.40
2018-03-11T09:25:06.768Z,67.50
2018-03-11T09:28:10.689Z,65.30
2018-03-11T09:31:14.127Z,64.70
2018-03-11T09:34:17.493Z,65.40
2018-03-11T09:37:21.867Z,68.00
2018-03-11T09:40:25.242Z,67.90
2018-03-11T09:43:29.408Z,68.20
2018-03-11T09:46:32.873Z,68.20
2018-03-11T09:49:36.247Z,68.60
2018-03-11T09:52:39.992Z,65.70
2018-03-11T09:55:44.209Z,64.00
2018-03-11T09:58:47.671Z,63.80
2018-03-11T10:01:51.074Z,60.30
2018-03-11T10:04:54.443Z,58.10
2018-03-11T10:07:57.915Z,56.90
2018-03-11T10:11:01.346Z,55.50
2018-03-11T10:14:04.759Z,53.80
2018-03-11T10:17:08.957Z,51.50
2018-03-11T10:20:12.370Z,51.40
2018-03-11T10:23:16.557Z,50.20
2018-03-11T10:26:19.967Z,50.00
2018-03-11T10:29:23.592Z,48.60
2018-03-11T10:32:27.142Z,47.30
2018-03-11T10:35:30.663Z,48.50
2018-03-11T10:38:34.250Z,46.20
2018-03-11T10:41:37.710Z,45.80
2018-03-11T10:44:41.419Z,46.00
2018-03-11T10:47:44.858Z,45.30
2018-03-11T10:50:49.229Z,45.30
2018-03-11T10:53:52.605Z,45.20
2018-03-11T10:56:56.030Z,45.10
2018-03-11T10:59:59.540Z,46.60
2018-03-11T11:03:09.407Z,52.00
2018-03-11T11:06:12.912Z,51.80
2018-03-11T11:09:16.433Z,51.90
2018-03-11T11:12:19.819Z,52.70
2018-03-11T11:15:23.194Z,51.80
2018-03-11T11:18:26.637Z,51.20
2018-03-11T11:21:30.033Z,51.80
2018-03-11T11:24:34.154Z,51.50
2018-03-11T11:27:37.634Z,51.40
2018-03-11T11:30:41.141Z,50.90
2018-03-11T11:33:44.846Z,49.80
2018-03-11T11:36:48.223Z,49.20
2018-03-11T11:39:51.660Z,47.50
2018-03-11T11:42:54.980Z,48.10
2018-03-11T11:45:58.390Z,48.30
2018-03-11T11:49:01.711Z,49.00
2018-03-11T11:52:05.034Z,49.00
2018-03-11T11:55:09.275Z,47.80
2018-03-11T11:58:12.756Z,47.70
2018-03-11T12:01:16.564Z,48.70
2018-03-11T12:04:19.980Z,48.70
2018-03-11T12:07:23.652Z,49.50
2018-03-11T12:10:27.025Z,48.00
2018-03-11T12:13:30.670Z,48.50
2018-03-11T12:16:34.117Z,48.60
2018-03-11T12:19:37.656Z,47.80
2018-03-11T12:22:41.211Z,46.80
2018-03-11T12:25:44.653Z,45.60
2018-03-11T12:28:48.065Z,46.50
2018-03-11T12:31:51.486Z,46.40
2018-03-11T12:34:54.911Z,45.30
2018-03-11T12:37:58.369Z,45.20
2018-03-11T12:41:01.745Z,45.00
2018-03-11T12:44:05.223Z,45.80
2018-03-11T12:47:09.721Z,45.50
2018-03-11T12:50:13.196Z,45.50
2018-03-11T12:53:16.564Z,46.40
2018-03-11T12:56:20.003Z,45.00
2018-03-11T12:59:23.477Z,46.90
2018-03-11T13:02:27.621Z,45.20
2018-03-11T13:05:31.024Z,45.10
2018-03-11T13:08:34.622Z,46.60
2018-03-11T13:11:38.205Z,48.00
2018-03-11T13:14:42.624Z,49.90
2018-03-11T13:17:46.812Z,48.20
2018-03-11T13:21:02.139Z,48.10
2018-03-11T13:24:05.543Z,48.30
2018-03-11T13:27:09.038Z,48.20
2018-03-11T13:30:13.213Z,49.20
2018-03-11T13:33:28.604Z,49.00
2018-03-11T13:36:32.227Z,49.20
2018-03-11T13:39:48.502Z,47.80
2018-03-11T13:42:51.878Z,47.70
2018-03-11T13:46:07.250Z,47.40
2018-03-11T13:49:11.496Z,48.10
2018-03-11T13:52:26.607Z,47.90
2018-03-11T13:55:30.178Z,48.30
2018-03-11T13:58:44.767Z,47.80
2018-03-11T14:01:48.823Z,49.10
2018-03-11T14:04:52.285Z,48.90
2018-03-11T14:07:55.618Z,49.30
2018-03-11T14:10:58.933Z,49.20
2018-03-11T14:14:02.475Z,49.00
2018-03-11T14:17:06.639Z,49.50
2018-03-11T14:20:10.065Z,49.10
2018-03-11T14:23:13.412Z,48.80
2018-03-11T14:26:16.925Z,49.20
2018-03-11T14:29:20.394Z,48.50
2018-03-11T14:32:23.927Z,48.90
2018-03-11T14:35:27.473Z,48.20
2018-03-11T14:38:30.850Z,48.50
2018-03-11T14:41:34.358Z,48.50
2018-03-11T14:44:37.727Z,48.80
2018-03-11T14:47:41.635Z,48.20
2018-03-11T14:50:45.048Z,47.20
2018-03-11T14:53:49.350Z,47.40
2018-03-11T14:56:52.823Z,47.30
2018-03-11T14:59:57.039Z,47.80
2018-03-11T15:03:00.472Z,47.60
2018-03-11T15:06:03.967Z,48.30
2018-03-11T15:09:07.529Z,48.90
2018-03-11T15:12:11.185Z,50.50
2018-03-11T15:15:14.716Z,50.60
2018-03-11T15:18:18.925Z,52.00
2018-03-11T15:21:23.244Z,52.00
2018-03-11T15:24:26.790Z,52.00
2018-03-11T15:27:30.173Z,52.10
2018-03-11T15:30:33.597Z,52.20
2018-03-11T15:33:37.747Z,51.00
2018-03-11T15:36:41.156Z,50.80
2018-03-11T15:39:44.894Z,49.30
2018-03-11T15:42:48.296Z,49.00
2018-03-11T15:45:51.803Z,49.00
2018-03-11T15:48:55.249Z,47.80
2018-03-11T15:51:58.604Z,48.00
2018-03-11T15:55:02.007Z,48.10
2018-03-11T15:58:06.175Z,46.70
2018-03-11T16:01:09.573Z,46.50
2018-03-11T16:04:13.050Z,46.50
2018-03-11T16:07:16.586Z,47.30
2018-03-11T16:10:19.905Z,48.30
2018-03-11T16:13:23.297Z,49.10
2018-03-11T16:16:26.693Z,49.90
2018-03-11T16:19:30.182Z,51.10
2018-03-11T16:22:33.610Z,51.10
2018-03-11T16:25:37.032Z,51.40
2018-03-11T16:28:40.477Z,51.90
2018-03-11T16:31:43.978Z,51.80
2018-03-11T16:34:47.338Z,52.40
2018-03-11T16:37:50.780Z,53.40
2018-03-11T16:40:55.072Z,53.70
2018-03-11T16:43:58.623Z,53.50
2018-03-11T16:47:01.996Z,53.70
2018-03-11T16:50:05.391Z,54.30
2018-03-11T16:53:08.803Z,54.70
2018-03-11T16:56:12.202Z,54.70
2018-03-11T16:59:15.575Z,55.00
2018-03-11T17:02:19.014Z,55.10
2018-03-11T17:05:23.006Z,55.00
2018-03-11T17:08:26.430Z,55.30
2018-03-11T17:11:30.093Z,55.80
2018-03-11T17:14:33.467Z,55.60
2018-03-11T17:17:36.896Z,55.00
2018-03-11T17:20:40.230Z,55.60
2018-03-11T17:23:43.796Z,56.10
2018-03-11T17:26:47.144Z,56.50
2018-03-11T17:29:50.638Z,57.60
2018-03-11T17:32:54.084Z,58.40
2018-03-11T17:35:57.486Z,58.90
2018-03-11T17:39:00.899Z,60.10
2018-03-11T17:42:04.358Z,60.80
2018-03-11T17:45:07.718Z,60.90
2018-03-11T17:48:11.116Z,61.60
2018-03-11T17:51:14.757Z,61.70
2018-03-11T17:54:18.227Z,62.30
2018-03-11T17:57:21.858Z,62.70
2018-03-11T18:00:25.202Z,64.00
2018-03-11T18:03:28.583Z,64.40
2018-03-11T18:06:32.801Z,65.80
2018-03-11T18:09:36.168Z,65.70
2018-03-11T18:12:40.641Z,66.60
2018-03-11T18:15:43.920Z,66.30
2018-03-11T18:18:48.046Z,67.20
2018-03-11T18:21:52.136Z,67.40
2018-03-11T18:24:56.393Z,67.50
2018-03-11T18:27:59.865Z,67.20
2018-03-11T18:31:03.390Z,67.20
2018-03-11T18:34:06.775Z,67.10
2018-03-11T18:37:10.185Z,67.90
2018-03-11T18:40:13.801Z,67.80
2018-03-11T18:43:17.270Z,68.10
2018-03-11T18:46:20.772Z,68.60
2018-03-11T18:49:24.162Z,68.50
2018-03-11T18:52:28.338Z,69.40
2018-03-11T18:55:31.755Z,69.30
2018-03-11T18:58:36.080Z,70.30
2018-03-11T19:01:40.253Z,70.00
2018-03-11T19:04:43.847Z,69.80
2018-03-11T19:07:47.184Z,70.50
2018-03-11T19:10:50.718Z,71.00
2018-03-11T19:13:54.153Z,71.20
2018-03-11T19:16:57.582Z,72.10
2018-03-11T19:20:01.919Z,71.10
2018-03-11T19:23:05.238Z,71.00
2018-03-11T19:26:08.722Z,71.10
2018-03-11T19:29:12.123Z,70.80
2018-03-11T19:32:15.555Z,70.50
2018-03-11T19:35:18.831Z,70.50
2018-03-11T19:38:22.196Z,70.40
2018-03-11T19:41:25.755Z,70.80
2018-03-11T19:44:29.128Z,71.00
2018-03-11T19:47:32.652Z,71.50
2018-03-11T19:50:36.029Z,71.80
2018-03-11T19:53:40.114Z,72.70
2018-03-11T19:56:43.547Z,72.50
2018-03-11T19:59:46.941Z,73.40
2018-03-11T20:02:50.417Z,73.90
2018-03-11T20:05:53.827Z,73.70
2018-03-11T20:08:57.330Z,74.10
2018-03-11T20:12:00.778Z,74.00
2018-03-11T20:15:04.351Z,74.00
2018-03-11T20:18:07.815Z,74.20
2018-03-11T20:21:11.195Z,74.50
2018-03-11T20:24:14.635Z,74.90
2018-03-11T20:27:18.050Z,75.10
2018-03-11T20:30:21.481Z,75.40
2018-03-11T20:33:25.783Z,75.90
2018-03-11T20:36:29.222Z,75.70
2018-03-11T20:39:32.615Z,76.10
2018-03-11T20:42:35.983Z,75.70
2018-03-11T20:45:39.426Z,75.80
2018-03-11T20:48:42.946Z,75.90
2018-03-11T20:51:46.326Z,76.20
2018-03-11T20:54:49.703Z,76.50
2018-03-11T20:57:53.066Z,76.70
2018-03-11T21:00:57.295Z,77.60
2018-03-11T21:04:00.679Z,77.40
2018-03-11T21:07:04.791Z,77.80
2018-03-11T21:10:08.882Z,79.00
2018-03-11T21:13:12.406Z,78.80
2018-03-11T21:16:16.613Z,79.20
2018-03-11T21:19:19.963Z,79.00
2018-03-11T21:22:24.368Z,79.30
2018-03-11T21:25:27.687Z,79.70
2018-03-11T21:28:31.086Z,80.60
2018-03-11T21:31:34.437Z,81.30
2018-03-11T21:34:38.849Z,81.90
2018-03-11T21:37:43.117Z,81.90
2018-03-11T21:40:46.487Z,82.50
2018-03-11T21:43:50.563Z,82.20
2018-03-11T21:46:54.734Z,82.10
2018-03-11T21:49:58.843Z,81.90
2018-03-11T21:53:02.354Z,81.80
2018-03-11T21:56:05.832Z,82.20
2018-03-11T21:59:09.918Z,83.50
2018-03-11T22:02:13.249Z,83.30
2018-03-11T22:05:16.715Z,83.50
2018-03-11T22:08:20.045Z,83.60
2018-03-11T22:11:23.453Z,84.10
2018-03-11T22:14:27.565Z,85.00
2018-03-11T22:17:30.882Z,84.70
2018-03-11T22:20:34.262Z,84.50
2018-03-11T22:23:37.589Z,84.30
2018-03-11T22:26:41.183Z,84.10
2018-03-11T22:29:45.188Z,84.00
2018-03-11T22:32:49.315Z,83.50
2018-03-11T22:35:52.604Z,83.30
2018-03-11T22:38:55.950Z,83.80
2018-03-11T22:41:59.251Z,83.30
2018-03-11T22:45:02.543Z,84.00
2018-03-11T22:48:06.185Z,83.30
2018-03-11T22:51:10.327Z,82.80
2018-03-11T22:54:13.995Z,83.10
2018-03-11T22:57:18.251Z,83.30
2018-03-11T23:00:21.580Z,83.10
2018-03-11T23:03:24.883Z,83.20
2018-03-11T23:06:28.276Z,83.20
2018-03-11T23:09:31.577Z,82.70
2018-03-11T23:12:34.949Z,82.70
2018-03-11T23:15:38.250Z,82.90
2018-03-11T23:18:53.539Z,83.30
2018-03-11T23:21:56.882Z,83.40
2018-03-11T23:25:00.205Z,83.20
2018-03-11T23:28:03.529Z,83.50
2018-03-11T23:31:06.972Z,83.70
2018-03-11T23:34:11.075Z,83.80
2018-03-11T23:37:14.407Z,83.70
2018-03-11T23:40:17.780Z,83.50
2018-03-11T23:43:21.855Z,84.20
2018-03-11T23:46:25.217Z,84.10
2018-03-11T23:49:28.641Z,83.90
2018-03-11T23:52:32.042Z,84.20
2018-03-11T23:55:35.539Z,83.90
2018-03-11T23:58:38.866Z,83.20
